ADDS METAR Data INFO
IDs: Format: Raw Decoded Include TAF

Data at: 0710 UTC 19 Oct 2017

KJES 190639Z AUTO 03004KT 10SM CLR 17/13 A3021 RMK AO2
KJES 190520Z AUTO 02004KT 10SM CLR 17/14 A3023 RMK AO2
KJES 190459Z AUTO 03004KT 10SM CLR 17/14 A3023 RMK AO2
KJES 190419Z AUTO 03006KT 10SM CLR 18/14 A3024 RMK AO2
KJES 190359Z AUTO 03006KT 10SM CLR 18/15 A3024 RMK AO2
KJES 190301Z AUTO 04005KT 10SM CLR 19/16 A3025 RMK AO2
KJES 190159Z AUTO 04004KT 10SM SCT050 19/16 A3025 RMK AO2
KJES 190139Z AUTO 05005KT 10SM OVC050 19/16 A3025 RMK AO2
KJES 182059Z AUTO 08008KT 10SM CLR 26/13 A3020 RMK AO2
KJES 181819Z AUTO 03007KT 10SM CLR 25/13 A3022 RMK AO2
KJES 181259Z AUTO 04005KT 10SM CLR 14/08 A3026 RMK AO2
KJES 180959Z AUTO 00000KT 10SM CLR 13/07 A3023 RMK AO2
KJES 180939Z AUTO 00000KT 10SM CLR 13/07 A3023 RMK AO2
KJES 180901Z AUTO 00000KT 10SM CLR 13/07 A3022 RMK AO2
KJES 180639Z AUTO 00000KT 10SM CLR 13/08 A3022 RMK AO2
KJES 180519Z AUTO 02006KT 10SM CLR 14/08 A3023 RMK AO2
KJES 180319Z AUTO 00000KT 10SM CLR 14/07 A3025 RMK AO2
KJES 172039Z AUTO 04008KT 10SM CLR 23/08 A3019 RMK AO2
KJES 172019Z AUTO 07009KT 10SM CLR 22/08 A3019 RMK AO2
KJES 171959Z AUTO 00000KT 10SM CLR 23/08 A3019 RMK AO2
KJES 171940Z AUTO 03010KT 10SM CLR 22/08 A3018 RMK AO2
KJES 171919Z AUTO 03007KT 10SM CLR 22/08 A3020 RMK AO2